Magic Sun — D54895U — position and weather

sailwx.info

Track history (hours):
 
Tides and Currents Weather Stations Pressure Air Temp Water Temp Dewpoint Dewpoint Depression Visibility Wind Speed Wind Dir Waves Ship Positions

Magic Sun

Last reported at 2016-Jun-18 14:33 UTC. Time now 2016-Jun-28 09:47 UTC.
Position N 49°29' E 000°06'.
Warning: this ship's position is 9 days out of date.

Length 10 m.

Type: Sailing vessel. MMSI: 227018810.

Date/timePositionNaut miles runAvg speedWind from/ knotsBaromVisibWave heightAir tempDewpointWater temp
2016-Jun-18 14:33N 49°29' E 000°06'0 0.0
2016-Jun-18 13:33N 49°29' E 000°06'1 1.3
2016-Jun-18 12:33N 49°29' E 000°04'5 4.8
2016-Jun-18 11:33N 49°28' W 000°03'5 5.3
2016-Jun-18 10:33N 49°27' W 000°11'6 6.1
2016-Jun-18 09:33N 49°25' W 000°20'7 7.0
2016-Jun-18 08:33N 49°24' W 000°31'7 0.5
2016-Jun-17 17:26N 49°25' W 000°41'4 4.8
2016-Jun-17 16:33N 49°28' W 000°37'5 4.6
2016-Jun-17 15:32N 49°30' W 000°31'5 5.6
2016-Jun-17 14:33N 49°32' W 000°23'6 6.3
2016-Jun-17 13:33N 49°25' W 000°21'4 4.3
2016-Jun-17 12:33N 49°22' W 000°17'6 6.3
2016-Jun-17 11:33N 49°26' W 000°09'6 6.2
2016-Jun-17 10:33N 49°30' W 000°02'4 3.7
2016-Jun-17 09:33N 49°31' E 000°03'  
Track history (hours):
 
Tides and Currents Weather Stations Pressure Air Temp Water Temp Dewpoint Dewpoint Depression Visibility Wind Speed Wind Dir Waves Ship Positions

Magic Sun

Last reported at 2016-Jun-18 14:33 UTC. Time now 2016-Jun-28 09:47 UTC.
Position N 49°29' E 000°06'.
Warning: this ship's position is 9 days out of date.

Length 10 m.

Type: Sailing vessel. MMSI: 227018810.

Date/timePositionNaut miles runAvg speedWind from/ knotsBaromVisibWave heightAir tempDewpointWater temp
2016-Jun-18 14:33N 49°29' E 000°06'0 0.0
2016-Jun-18 13:33N 49°29' E 000°06'1 1.3
2016-Jun-18 12:33N 49°29' E 000°04'5 4.8
2016-Jun-18 11:33N 49°28' W 000°03'5 5.3
2016-Jun-18 10:33N 49°27' W 000°11'6 6.1
2016-Jun-18 09:33N 49°25' W 000°20'7 7.0
2016-Jun-18 08:33N 49°24' W 000°31'7 0.5
2016-Jun-17 17:26N 49°25' W 000°41'4 4.8
2016-Jun-17 16:33N 49°28' W 000°37'5 4.6
2016-Jun-17 15:32N 49°30' W 000°31'5 5.6
2016-Jun-17 14:33N 49°32' W 000°23'6 6.3
2016-Jun-17 13:33N 49°25' W 000°21'4 4.3
2016-Jun-17 12:33N 49°22' W 000°17'6 6.3
2016-Jun-17 11:33N 49°26' W 000°09'6 6.2
2016-Jun-17 10:33N 49°30' W 000°02'4 3.7
2016-Jun-17 09:33N 49°31' E 000°03'  

Dump ship's entire track history